Time;durP1;ratioP1;P1;durP2;ratioP2;P2;SDS_P1;SDS_P2;PMS_P1;PMS_P2;Temp;Humidity;BMP_temperature;BMP_pressure;BME280_temperature;BME280_humidity;BME280_pressure;Samples;Min_cycle;Max_cycle;Signal;HPM_P1;HPM_P2
2022/02/18 00:00:27;;;;;;;9.63;1.93;;;;;;;;;;5009981;28;20583;-80
2022/02/18 00:02:55;;;;;;;10.43;1.80;;;;;;;;;;5011194;28;20703;-79
2022/02/18 00:05:23;;;;;;;11.93;1.90;;;;;;;;;;5011777;28;20672;-80
2022/02/18 00:07:50;;;;;;;17.60;1.83;;;;;;;;;;5009973;28;20219;-80
2022/02/18 00:10:17;;;;;;;15.40;2.17;;;;;;;;;;5007952;28;20295;-79
2022/02/18 00:12:45;;;;;;;9.77;1.73;;;;;;;;;;5012658;28;20677;-80
2022/02/18 00:15:13;;;;;;;13.13;2.00;;;;;;;;;;5013175;28;20195;-77
2022/02/18 00:17:40;;;;;;;13.83;2.50;;;;;;;;;;5010736;28;20215;-80
2022/02/18 00:20:09;;;;;;;11.70;1.90;;;;;;;;;;5011717;28;20725;-79
2022/02/18 00:22:37;;;;;;;12.27;1.80;;;;;;;;;;5009750;28;20208;-80
2022/02/18 00:25:05;;;;;;;17.10;2.17;;;;;;;;;;5008408;28;20848;-80
2022/02/18 00:27:33;;;;;;;15.40;1.93;;;;;;;;;;5013314;28;20251;-80
2022/02/18 00:30:00;;;;;;;21.80;2.60;;;;;;;;;;5009944;28;20545;-79
2022/02/18 00:32:27;;;;;;;15.57;2.53;;;;;;;;;;5010161;28;20741;-80
2022/02/18 00:34:55;;;;;;;16.20;2.60;;;;;;;;;;5012540;28;20224;-80
2022/02/18 00:37:23;;;;;;;12.53;2.00;;;;;;;;;;5012486;28;20227;-80
2022/02/18 00:39:50;;;;;;;26.40;2.67;;;;;;;;;;5008179;28;20200;-81
2022/02/18 00:42:18;;;;;;;10.10;2.20;;;;;;;;;;5013109;28;20493;-81
2022/02/18 00:44:46;;;;;;;16.73;3.03;;;;;;;;;;5010973;28;20319;-80
2022/02/18 00:47:13;;;;;;;14.57;1.77;;;;;;;;;;5013808;28;20282;-80
2022/02/18 00:49:41;;;;;;;11.87;1.87;;;;;;;;;;5012103;28;20232;-79
2022/02/18 00:52:08;;;;;;;17.70;3.03;;;;;;;;;;5011590;28;20291;-80
2022/02/18 00:54:36;;;;;;;14.20;2.20;;;;;;;;;;5010367;28;20223;-81
2022/02/18 00:57:04;;;;;;;14.03;2.57;;;;;;;;;;5009078;28;21123;-80
2022/02/18 00:59:31;;;;;;;16.40;2.50;;;;;;;;;;5012113;28;20291;-81
2022/02/18 01:01:58;;;;;;;15.90;2.27;;;;;;;;;;5009421;28;20622;-79
2022/02/18 01:04:25;;;;;;;16.10;2.33;;;;;;;;;;5009092;28;20287;-80
2022/02/18 01:06:53;;;;;;;14.73;2.57;;;;;;;;;;5010188;28;20232;-78
2022/02/18 01:09:20;;;;;;;22.23;3.30;;;;;;;;;;5009118;28;20207;-80
2022/02/18 01:11:48;;;;;;;18.73;2.83;;;;;;;;;;5010340;28;20200;-80
2022/02/18 01:14:15;;;;;;;16.97;2.80;;;;;;;;;;5013720;28;20200;-80
2022/02/18 01:16:43;;;;;;;18.47;2.87;;;;;;;;;;5008807;28;20820;-80
2022/02/18 01:19:11;;;;;;;17.00;2.80;;;;;;;;;;5009966;28;20291;-80
2022/02/18 01:21:38;;;;;;;16.40;3.50;;;;;;;;;;5010714;28;20240;-79
2022/02/18 01:24:05;;;;;;;12.63;2.40;;;;;;;;;;5010750;28;20264;-80
2022/02/18 01:26:33;;;;;;;12.90;2.30;;;;;;;;;;5010483;28;20978;-77
2022/02/18 01:29:01;;;;;;;16.13;3.33;;;;;;;;;;5010324;28;20208;-79
2022/02/18 01:31:29;;;;;;;18.33;2.57;;;;;;;;;;5008432;28;20291;-80
2022/02/18 01:33:57;;;;;;;21.90;2.70;;;;;;;;;;5012070;28;20207;-79
2022/02/18 01:36:25;;;;;;;28.70;2.73;;;;;;;;;;5010589;28;20217;-80
2022/02/18 01:38:52;;;;;;;17.17;3.23;;;;;;;;;;5015928;28;20224;-79
2022/02/18 01:41:20;;;;;;;17.50;2.10;;;;;;;;;;5015993;28;20207;-78
2022/02/18 01:43:51;;;;;;;9.87;2.20;;;;;;;;;;5015011;28;20208;-80
2022/02/18 01:46:20;;;;;;;13.57;2.60;;;;;;;;;;5012996;28;20234;-79
2022/02/18 01:48:47;;;;;;;15.03;2.00;;;;;;;;;;5014995;28;20208;-78
2022/02/18 01:51:15;;;;;;;21.03;3.47;;;;;;;;;;5012764;28;20287;-79
2022/02/18 01:53:42;;;;;;;15.43;2.73;;;;;;;;;;5016223;28;20421;-80
2022/02/18 01:56:09;;;;;;;15.00;2.60;;;;;;;;;;5014069;28;20311;-79
2022/02/18 01:58:38;;;;;;;26.53;3.30;;;;;;;;;;5015090;28;20559;-79
2022/02/18 02:01:08;;;;;;;14.23;2.30;;;;;;;;;;5012146;28;20204;-79
2022/02/18 02:03:37;;;;;;;12.87;2.50;;;;;;;;;;5016161;28;20212;-80
2022/02/18 02:06:04;;;;;;;18.57;2.40;;;;;;;;;;5012948;28;20239;-80
2022/02/18 02:08:32;;;;;;;17.13;2.10;;;;;;;;;;5015139;28;20203;-79
2022/02/18 02:10:59;;;;;;;13.53;2.20;;;;;;;;;;5012550;28;20238;-79
2022/02/18 02:13:32;;;;;;;11.67;2.10;;;;;;;;;;5013035;28;20304;-80
2022/02/18 02:15:59;;;;;;;13.40;2.50;;;;;;;;;;5010383;28;20212;-79
2022/02/18 02:18:27;;;;;;;13.13;2.17;;;;;;;;;;5011198;28;20511;-80
2022/02/18 02:20:55;;;;;;;17.60;2.30;;;;;;;;;;5011047;28;20269;-79
2022/02/18 02:23:24;;;;;;;11.70;1.93;;;;;;;;;;5012805;28;20216;-80
2022/02/18 02:25:51;;;;;;;18.03;2.30;;;;;;;;;;5010004;28;20519;-79
2022/02/18 02:28:19;;;;;;;13.40;2.20;;;;;;;;;;5009844;28;20295;-79
2022/02/18 02:30:46;;;;;;;10.83;2.03;;;;;;;;;;5011349;28;20295;-79
2022/02/18 02:33:16;;;;;;;15.43;2.37;;;;;;;;;;5012030;28;20295;-81
2022/02/18 02:35:43;;;;;;;12.80;2.20;;;;;;;;;;5012848;28;20220;-81
2022/02/18 02:38:10;;;;;;;11.70;2.10;;;;;;;;;;5014308;28;20291;-80
2022/02/18 02:40:39;;;;;;;24.17;2.70;;;;;;;;;;5011308;28;20578;-80
2022/02/18 02:43:06;;;;;;;14.00;2.63;;;;;;;;;;5007607;28;20214;-79
2022/02/18 02:45:33;;;;;;;14.30;2.17;;;;;;;;;;5012221;28;20228;-80
2022/02/18 02:48:00;;;;;;;16.00;2.40;;;;;;;;;;5010648;28;20314;-79
2022/02/18 02:50:28;;;;;;;17.70;3.33;;;;;;;;;;5010893;28;20659;-80
2022/02/18 02:52:55;;;;;;;23.73;2.83;;;;;;;;;;5010849;28;20209;-80
2022/02/18 02:55:24;;;;;;;13.83;2.53;;;;;;;;;;5010933;28;20203;-79
2022/02/18 02:57:53;;;;;;;21.10;2.80;;;;;;;;;;5010659;28;20295;-80
2022/02/18 03:00:20;;;;;;;21.40;3.60;;;;;;;;;;5010005;28;20302;-80
2022/02/18 03:02:47;;;;;;;24.67;3.03;;;;;;;;;;5011586;28;20220;-79
2022/02/18 03:05:14;;;;;;;15.90;3.10;;;;;;;;;;5011454;28;20204;-80
2022/02/18 03:07:42;;;;;;;14.50;2.63;;;;;;;;;;5009632;28;20204;-80
2022/02/18 03:10:10;;;;;;;14.83;3.07;;;;;;;;;;5012649;28;20197;-79
2022/02/18 03:12:37;;;;;;;16.20;3.13;;;;;;;;;;5008895;28;20659;-79
2022/02/18 03:15:06;;;;;;;19.50;2.40;;;;;;;;;;5011336;28;20397;-80
2022/02/18 03:17:34;;;;;;;11.87;2.93;;;;;;;;;;5013282;28;20227;-80
2022/02/18 03:20:01;;;;;;;15.17;2.77;;;;;;;;;;5011522;28;20204;-80
2022/02/18 03:22:28;;;;;;;20.10;3.20;;;;;;;;;;5012790;28;20197;-80
2022/02/18 03:24:55;;;;;;;12.10;2.93;;;;;;;;;;5014738;28;20590;-80
2022/02/18 03:27:22;;;;;;;22.57;2.80;;;;;;;;;;5011333;28;20578;-80
2022/02/18 03:29:50;;;;;;;30.87;5.07;;;;;;;;;;5010222;28;20213;-80
2022/02/18 03:32:18;;;;;;;18.87;3.80;;;;;;;;;;5012100;28;20208;-79
2022/02/18 03:34:45;;;;;;;26.17;5.60;;;;;;;;;;5011850;28;20242;-80
2022/02/18 03:37:12;;;;;;;22.37;4.20;;;;;;;;;;5009805;28;20234;-80
2022/02/18 03:39:40;;;;;;;17.60;4.10;;;;;;;;;;5015642;28;20540;-80
2022/02/18 03:42:07;;;;;;;22.33;3.60;;;;;;;;;;5012521;28;20295;-78
2022/02/18 03:44:35;;;;;;;14.67;3.20;;;;;;;;;;5012174;28;20685;-79
2022/02/18 03:47:03;;;;;;;18.60;3.40;;;;;;;;;;5008581;28;20238;-79
2022/02/18 03:49:31;;;;;;;12.77;2.80;;;;;;;;;;5010729;28;20227;-79
2022/02/18 03:51:58;;;;;;;12.37;2.90;;;;;;;;;;5010435;28;21520;-79
2022/02/18 03:54:26;;;;;;;14.13;2.90;;;;;;;;;;5012068;28;20211;-80
2022/02/18 03:56:53;;;;;;;10.73;2.60;;;;;;;;;;5010633;28;20244;-80
2022/02/18 03:59:21;;;;;;;13.03;2.67;;;;;;;;;;5010496;28;20298;-79
2022/02/18 04:01:48;;;;;;;16.23;2.30;;;;;;;;;;5012747;28;20208;-80
2022/02/18 04:04:15;;;;;;;22.10;3.33;;;;;;;;;;5010261;28;20685;-79
2022/02/18 04:06:44;;;;;;;15.73;3.47;;;;;;;;;;5014268;28;20226;-77
2022/02/18 04:09:11;;;;;;;17.20;3.50;;;;;;;;;;5009604;28;20227;-79
2022/02/18 04:11:38;;;;;;;14.27;3.20;;;;;;;;;;5009995;28;20231;-79
2022/02/18 04:14:05;;;;;;;19.60;3.83;;;;;;;;;;5009382;28;20615;-77
2022/02/18 04:16:33;;;;;;;19.30;4.03;;;;;;;;;;5009887;28;20299;-80
2022/02/18 04:19:00;;;;;;;25.97;3.60;;;;;;;;;;5009540;28;20659;-80
2022/02/18 04:21:27;;;;;;;19.33;3.87;;;;;;;;;;5012958;28;20283;-79
2022/02/18 04:23:56;;;;;;;20.97;4.33;;;;;;;;;;5011153;28;20219;-80
2022/02/18 04:26:23;;;;;;;17.27;3.93;;;;;;;;;;5012313;28;20491;-80
2022/02/18 04:28:50;;;;;;;23.77;4.03;;;;;;;;;;5007702;28;20315;-79
2022/02/18 04:31:18;;;;;;;14.63;3.27;;;;;;;;;;5011390;28;20283;-78
2022/02/18 04:33:45;;;;;;;18.80;3.53;;;;;;;;;;5011565;28;20204;-80
2022/02/18 04:36:12;;;;;;;20.60;3.47;;;;;;;;;;5011826;28;20650;-79
2022/02/18 04:38:39;;;;;;;18.63;3.50;;;;;;;;;;5011681;28;20204;-80
2022/02/18 04:41:08;;;;;;;17.43;3.30;;;;;;;;;;5011215;28;20236;-78
2022/02/18 04:43:36;;;;;;;17.13;3.70;;;;;;;;;;5009266;28;20299;-78
2022/02/18 04:46:03;;;;;;;16.67;3.53;;;;;;;;;;5008838;28;21062;-79
2022/02/18 04:48:30;;;;;;;12.30;3.07;;;;;;;;;;5008684;28;20291;-78
2022/02/18 04:50:57;;;;;;;21.37;3.83;;;;;;;;;;5011279;28;20212;-80
2022/02/18 04:53:24;;;;;;;20.63;3.80;;;;;;;;;;5009651;28;20232;-78
2022/02/18 04:55:51;;;;;;;18.07;3.20;;;;;;;;;;5007553;28;20252;-79
2022/02/18 04:58:20;;;;;;;22.03;4.37;;;;;;;;;;5008184;28;20316;-79
2022/02/18 05:00:47;;;;;;;12.77;2.37;;;;;;;;;;5007293;28;20208;-79
2022/02/18 05:03:14;;;;;;;12.50;2.90;;;;;;;;;;5008356;28;20671;-77
2022/02/18 05:05:42;;;;;;;22.00;2.83;;;;;;;;;;5010798;28;20232;-79
2022/02/18 05:08:09;;;;;;;19.30;3.40;;;;;;;;;;5009331;28;20259;-78
2022/02/18 05:10:36;;;;;;;13.60;3.50;;;;;;;;;;5008515;28;20254;-78
2022/02/18 05:13:04;;;;;;;17.00;3.37;;;;;;;;;;5012963;28;20472;-79
2022/02/18 05:15:33;;;;;;;7.03;2.67;;;;;;;;;;5013148;28;20212;-77
2022/02/18 05:18:01;;;;;;;11.93;3.30;;;;;;;;;;5014216;28;20205;-79
2022/02/18 05:20:29;;;;;;;13.53;2.63;;;;;;;;;;5013463;28;20239;-80
2022/02/18 05:22:56;;;;;;;16.70;3.47;;;;;;;;;;5012451;28;20204;-80
2022/02/18 05:25:23;;;;;;;12.23;2.70;;;;;;;;;;5014296;28;20212;-79
2022/02/18 05:27:50;;;;;;;24.40;3.17;;;;;;;;;;5017621;28;20325;-79
2022/02/18 05:30:17;;;;;;;21.33;3.97;;;;;;;;;;5012260;28;20231;-79
2022/02/18 05:32:46;;;;;;;17.20;3.53;;;;;;;;;;5011965;28;20667;-79
2022/02/18 05:35:13;;;;;;;17.37;3.43;;;;;;;;;;5016205;28;20582;-79
2022/02/18 05:37:40;;;;;;;14.97;3.13;;;;;;;;;;5013633;28;20204;-79
2022/02/18 05:40:08;;;;;;;19.23;3.20;;;;;;;;;;5013955;28;20283;-79
2022/02/18 05:42:35;;;;;;;12.83;2.80;;;;;;;;;;5011386;28;20214;-80
2022/02/18 05:45:02;;;;;;;15.87;3.10;;;;;;;;;;5013294;28;20210;-79
2022/02/18 05:47:29;;;;;;;22.47;3.30;;;;;;;;;;5012990;28;20220;-78
2022/02/18 05:49:58;;;;;;;11.73;2.60;;;;;;;;;;5014136;28;20219;-79
2022/02/18 05:52:25;;;;;;;15.53;2.93;;;;;;;;;;5013122;28;20212;-80
2022/02/18 05:54:52;;;;;;;19.63;3.70;;;;;;;;;;5013111;28;20200;-78
2022/02/18 05:57:19;;;;;;;15.33;3.10;;;;;;;;;;5012287;28;20344;-80
2022/02/18 05:59:47;;;;;;;12.93;2.50;;;;;;;;;;5011516;28;20579;-77
2022/02/18 06:02:14;;;;;;;15.97;3.43;;;;;;;;;;5015527;28;20208;-79
2022/02/18 06:04:41;;;;;;;11.43;2.80;;;;;;;;;;5011869;28;20204;-79
2022/02/18 06:07:09;;;;;;;23.23;5.07;;;;;;;;;;5007866;28;20232;-79
2022/02/18 06:09:36;;;;;;;24.23;4.20;;;;;;;;;;5005430;28;20670;-80
2022/02/18 06:12:04;;;;;;;24.60;4.00;;;;;;;;;;5012977;28;20208;-80
2022/02/18 06:14:31;;;;;;;23.37;3.93;;;;;;;;;;5012766;28;20230;-77
2022/02/18 06:16:58;;;;;;;22.57;3.97;;;;;;;;;;5013553;28;20223;-80
2022/02/18 06:19:25;;;;;;;20.43;3.90;;;;;;;;;;5012047;28;20231;-79
2022/02/18 06:21:53;;;;;;;15.30;3.70;;;;;;;;;;5013383;28;20637;-80
2022/02/18 06:24:21;;;;;;;21.67;3.60;;;;;;;;;;5012631;28;20306;-79
2022/02/18 06:26:49;;;;;;;13.20;3.50;;;;;;;;;;5011741;28;20238;-79
2022/02/18 06:29:16;;;;;;;21.77;3.50;;;;;;;;;;5013519;28;20465;-77
2022/02/18 06:31:43;;;;;;;18.03;3.97;;;;;;;;;;5012268;28;20355;-79
2022/02/18 06:34:10;;;;;;;22.23;4.80;;;;;;;;;;5014739;28;20294;-79
2022/02/18 06:36:37;;;;;;;23.70;4.00;;;;;;;;;;5013184;28;20221;-80
2022/02/18 06:39:05;;;;;;;23.70;5.10;;;;;;;;;;5011856;28;20235;-80
2022/02/18 06:41:33;;;;;;;13.63;4.27;;;;;;;;;;5012360;28;20204;-78
2022/02/18 06:44:01;;;;;;;17.67;4.13;;;;;;;;;;5009856;28;20630;-79
2022/02/18 06:46:28;;;;;;;21.57;7.20;;;;;;;;;;5010512;28;20772;-78
2022/02/18 06:48:55;;;;;;;16.07;4.67;;;;;;;;;;5009828;28;20219;-78
2022/02/18 06:51:23;;;;;;;21.83;4.77;;;;;;;;;;5005937;28;20211;-79
2022/02/18 06:53:51;;;;;;;22.70;4.90;;;;;;;;;;5006944;28;20205;-78
2022/02/18 06:56:23;;;;;;;20.23;5.10;;;;;;;;;;5000857;28;20576;-76
2022/02/18 06:58:52;;;;;;;17.30;4.07;;;;;;;;;;5003825;28;21888;-78
2022/02/18 07:01:19;;;;;;;22.33;4.60;;;;;;;;;;5005300;28;20347;-77
2022/02/18 07:06:33;;;;;;;16.43;5.20;;;;;;;;;;5002322;28;20224;-77
2022/02/18 07:09:00;;;;;;;19.13;5.80;;;;;;;;;;5006943;28;20208;-78
2022/02/18 07:11:29;;;;;;;26.27;6.37;;;;;;;;;;5006953;28;20291;-77
2022/02/18 07:13:59;;;;;;;24.80;6.87;;;;;;;;;;5004330;28;20671;-78
2022/02/18 07:16:27;;;;;;;24.07;6.53;;;;;;;;;;5006155;28;20323;-78
2022/02/18 07:18:55;;;;;;;23.10;6.67;;;;;;;;;;5007030;28;20679;-78
2022/02/18 07:21:22;;;;;;;27.87;6.17;;;;;;;;;;5008012;28;20749;-78
2022/02/18 07:23:54;;;;;;;24.57;6.27;;;;;;;;;;5008275;28;20313;-78
2022/02/18 07:26:21;;;;;;;30.23;4.73;;;;;;;;;;5007887;28;20714;-78
2022/02/18 07:28:48;;;;;;;26.23;5.30;;;;;;;;;;5008753;28;20254;-77
2022/02/18 07:31:21;;;;;;;29.30;4.37;;;;;;;;;;5005382;28;20876;-77
2022/02/18 07:33:48;;;;;;;17.20;2.83;;;;;;;;;;5007316;28;20302;-77
2022/02/18 07:36:15;;;;;;;19.93;3.07;;;;;;;;;;5007944;28;20228;-78
2022/02/18 07:38:42;;;;;;;21.30;3.03;;;;;;;;;;5010764;28;20208;-77
2022/02/18 07:41:09;;;;;;;22.43;3.50;;;;;;;;;;5007671;28;20227;-78
2022/02/18 07:43:36;;;;;;;17.13;3.43;;;;;;;;;;5007094;28;20200;-77
2022/02/18 07:46:04;;;;;;;13.33;3.20;;;;;;;;;;5009493;28;20231;-78
2022/02/18 07:48:32;;;;;;;22.87;3.63;;;;;;;;;;5006383;28;20220;-78
2022/02/18 07:51:00;;;;;;;18.57;3.30;;;;;;;;;;5006448;28;20218;-78
2022/02/18 07:53:27;;;;;;;21.63;3.63;;;;;;;;;;5006403;28;20224;-77
2022/02/18 07:55:54;;;;;;;18.33;3.17;;;;;;;;;;5010118;28;20292;-77
2022/02/18 07:58:21;;;;;;;30.57;4.90;;;;;;;;;;5010552;28;20210;-77
2022/02/18 08:00:50;;;;;;;15.73;3.73;;;;;;;;;;5012649;28;20294;-78
2022/02/18 08:03:17;;;;;;;24.03;4.50;;;;;;;;;;5008926;28;20204;-78
2022/02/18 08:05:52;;;;;;;23.03;4.70;;;;;;;;;;5004759;28;20732;-78
2022/02/18 08:08:24;;;;;;;16.97;3.73;;;;;;;;;;5007934;28;20219;-78
2022/02/18 08:10:52;;;;;;;29.83;4.70;;;;;;;;;;5008193;28;20211;-78
2022/02/18 08:13:19;;;;;;;26.10;6.00;;;;;;;;;;5008493;28;20291;-77
2022/02/18 08:15:46;;;;;;;26.07;5.40;;;;;;;;;;5004883;28;20598;-78
2022/02/18 08:18:17;;;;;;;20.80;4.33;;;;;;;;;;5006260;28;20297;-78
2022/02/18 08:20:45;;;;;;;24.17;3.70;;;;;;;;;;5007514;28;20204;-77
2022/02/18 08:23:13;;;;;;;20.20;4.23;;;;;;;;;;4999230;28;20204;-77
2022/02/18 08:25:40;;;;;;;30.77;4.67;;;;;;;;;;5000423;28;20613;-77
2022/02/18 08:28:08;;;;;;;20.77;4.60;;;;;;;;;;4992334;28;20328;-77
2022/02/18 08:30:35;;;;;;;22.60;4.73;;;;;;;;;;4994351;28;20211;-77
2022/02/18 08:33:02;;;;;;;25.50;5.33;;;;;;;;;;5000238;28;20218;-78
2022/02/18 08:35:29;;;;;;;24.20;4.47;;;;;;;;;;5006125;28;20232;-77
2022/02/18 08:37:57;;;;;;;25.07;4.83;;;;;;;;;;5006713;28;20211;-76
2022/02/18 08:40:26;;;;;;;28.77;4.63;;;;;;;;;;5009489;28;20365;-77
2022/02/18 08:42:53;;;;;;;25.33;4.13;;;;;;;;;;5006310;28;20327;-77
2022/02/18 08:45:20;;;;;;;26.63;4.87;;;;;;;;;;5002679;28;20218;-78
2022/02/18 08:47:48;;;;;;;21.80;4.17;;;;;;;;;;5006389;28;20226;-78
2022/02/18 08:50:16;;;;;;;20.87;4.00;;;;;;;;;;5012519;28;20208;-76
2022/02/18 08:52:44;;;;;;;26.13;4.73;;;;;;;;;;5010759;28;20574;-77
2022/02/18 08:55:15;;;;;;;16.03;3.63;;;;;;;;;;5011206;28;20209;-78
2022/02/18 08:57:46;;;;;;;25.03;4.70;;;;;;;;;;5011403;28;20244;-78
2022/02/18 09:00:14;;;;;;;26.80;5.13;;;;;;;;;;5008095;28;20215;-77
2022/02/18 09:02:42;;;;;;;25.53;4.77;;;;;;;;;;5010124;28;20205;-78
2022/02/18 09:05:10;;;;;;;35.83;5.47;;;;;;;;;;5014849;28;20208;-78
2022/02/18 09:07:41;;;;;;;30.37;5.50;;;;;;;;;;5013449;28;20240;-78
2022/02/18 09:10:11;;;;;;;23.70;5.80;;;;;;;;;;5010054;28;20708;-78
2022/02/18 09:12:39;;;;;;;28.93;5.40;;;;;;;;;;5008370;28;20747;-78
2022/02/18 09:15:14;;;;;;;36.20;5.30;;;;;;;;;;5012925;28;20294;-79
2022/02/18 09:17:41;;;;;;;30.03;5.67;;;;;;;;;;5012942;28;20204;-77
2022/02/18 09:20:10;;;;;;;32.83;5.60;;;;;;;;;;5012612;28;20643;-77
2022/02/18 09:22:38;;;;;;;36.17;6.17;;;;;;;;;;5010347;28;20208;-77
2022/02/18 09:25:06;;;;;;;26.23;5.77;;;;;;;;;;5010725;28;20287;-78
2022/02/18 09:27:33;;;;;;;33.23;5.97;;;;;;;;;;5008304;28;20247;-78
2022/02/18 09:30:02;;;;;;;29.90;7.07;;;;;;;;;;5011982;28;20255;-77
2022/02/18 09:32:31;;;;;;;47.87;7.80;;;;;;;;;;5010282;28;20207;-78
2022/02/18 09:35:01;;;;;;;25.13;6.60;;;;;;;;;;5012974;28;20644;-77
2022/02/18 09:37:31;;;;;;;35.53;6.80;;;;;;;;;;5009772;28;20232;-78
2022/02/18 09:39:58;;;;;;;28.40;6.67;;;;;;;;;;5012934;28;20674;-78
2022/02/18 09:42:25;;;;;;;35.77;6.43;;;;;;;;;;5008623;28;20318;-78
2022/02/18 09:44:54;;;;;;;33.23;6.70;;;;;;;;;;5010563;28;20220;-78
2022/02/18 09:47:21;;;;;;;27.00;5.77;;;;;;;;;;5012762;28;20252;-78
2022/02/18 09:49:49;;;;;;;28.97;6.30;;;;;;;;;;5009298;28;20683;-78
2022/02/18 09:52:17;;;;;;;36.63;6.57;;;;;;;;;;5010657;28;20214;-78
2022/02/18 09:54:46;;;;;;;32.23;5.83;;;;;;;;;;5013602;28;20294;-77
2022/02/18 09:57:13;;;;;;;30.43;6.73;;;;;;;;;;5011763;28;20232;-78
2022/02/18 09:59:40;;;;;;;29.73;5.47;;;;;;;;;;5011199;28;20210;-78
2022/02/18 10:02:08;;;;;;;25.80;5.40;;;;;;;;;;5012243;28;20208;-78
2022/02/18 10:04:35;;;;;;;36.03;6.67;;;;;;;;;;5012213;28;20229;-78
2022/02/18 10:07:07;;;;;;;25.63;5.40;;;;;;;;;;5011422;28;20254;-78
2022/02/18 10:09:37;;;;;;;34.60;6.63;;;;;;;;;;5011497;28;20323;-77
2022/02/18 10:12:05;;;;;;;35.77;6.03;;;;;;;;;;5010562;28;20203;-77
2022/02/18 10:14:54;;;;;;;32.40;6.37;;;;;;;;;;5010134;28;20208;-78
2022/02/18 10:17:22;;;;;;;19.87;4.90;;;;;;;;;;5009676;28;20227;-77
2022/02/18 10:19:54;;;;;;;18.23;4.77;;;;;;;;;;5011123;28;20212;-77
2022/02/18 10:22:27;;;;;;;31.97;5.73;;;;;;;;;;5012365;28;20268;-77
2022/02/18 10:24:55;;;;;;;23.40;5.23;;;;;;;;;;5013025;28;20201;-77
2022/02/18 10:27:23;;;;;;;35.27;6.27;;;;;;;;;;5010905;28;20242;-77
2022/02/18 10:29:57;;;;;;;33.13;6.47;;;;;;;;;;5011919;28;20652;-78
2022/02/18 10:32:24;;;;;;;28.67;7.23;;;;;;;;;;5009452;28;20200;-77
2022/02/18 10:34:52;;;;;;;24.77;5.97;;;;;;;;;;5010040;28;20291;-78
2022/02/18 10:37:21;;;;;;;37.80;6.90;;;;;;;;;;5010426;28;20231;-77
2022/02/18 10:39:49;;;;;;;33.57;7.63;;;;;;;;;;5012128;28;20196;-79
2022/02/18 10:42:17;;;;;;;37.27;6.23;;;;;;;;;;5011444;28;20295;-78
2022/02/18 10:44:45;;;;;;;27.80;6.13;;;;;;;;;;5013349;28;20295;-78
2022/02/18 10:47:21;;;;;;;26.47;6.23;;;;;;;;;;5012641;28;20220;-77
2022/02/18 10:49:48;;;;;;;30.73;7.30;;;;;;;;;;5013971;28;20234;-77
2022/02/18 10:52:16;;;;;;;20.93;5.53;;;;;;;;;;5012590;28;20219;-78
2022/02/18 10:54:45;;;;;;;31.80;6.50;;;;;;;;;;5012495;28;20674;-78
2022/02/18 10:57:18;;;;;;;29.87;5.97;;;;;;;;;;5012233;28;20263;-77
2022/02/18 10:59:45;;;;;;;24.73;5.87;;;;;;;;;;5012629;28;20287;-78
2022/02/18 11:02:13;;;;;;;31.50;5.93;;;;;;;;;;5014599;28;20232;-78
2022/02/18 11:04:40;;;;;;;29.47;6.63;;;;;;;;;;5010167;28;20680;-76
2022/02/18 11:07:14;;;;;;;22.33;5.40;;;;;;;;;;5005746;28;20227;-78
2022/02/18 11:09:42;;;;;;;22.03;5.80;;;;;;;;;;5009650;28;20228;-76
2022/02/18 11:12:10;;;;;;;20.83;4.50;;;;;;;;;;5007580;28;20223;-78
2022/02/18 11:14:38;;;;;;;22.37;4.83;;;;;;;;;;5010425;28;20279;-78
2022/02/18 11:17:06;;;;;;;19.73;4.57;;;;;;;;;;5012208;28;20232;-78
2022/02/18 11:19:35;;;;;;;21.10;4.30;;;;;;;;;;5008132;28;20231;-77
2022/02/18 11:22:03;;;;;;;17.33;4.57;;;;;;;;;;5006435;28;20289;-77
2022/02/18 11:24:31;;;;;;;14.20;3.60;;;;;;;;;;5006840;28;20220;-78
2022/02/18 11:27:01;;;;;;;4.93;1.50;;;;;;;;;;5011857;28;20231;-79
2022/02/18 11:29:28;;;;;;;3.67;1.00;;;;;;;;;;5009421;28;20227;-78
2022/02/18 11:32:00;;;;;;;3.13;1.13;;;;;;;;;;5009809;28;20222;-79
2022/02/18 11:34:49;;;;;;;5.17;2.20;;;;;;;;;;5006603;28;20212;-78
2022/02/18 11:37:29;;;;;;;1.90;1.00;;;;;;;;;;4982980;28;20234;-77
2022/02/18 11:40:06;;;;;;;1.77;1.10;;;;;;;;;;5008523;28;20204;-78
2022/02/18 11:42:40;;;;;;;2.07;0.83;;;;;;;;;;5005578;28;20633;-78
2022/02/18 11:45:12;;;;;;;2.23;0.47;;;;;;;;;;5005919;28;20292;-77
2022/02/18 11:47:40;;;;;;;2.00;0.60;;;;;;;;;;5002155;28;20228;-77
2022/02/18 11:50:09;;;;;;;1.00;0.57;;;;;;;;;;5004723;28;20314;-77
2022/02/18 11:52:41;;;;;;;1.57;0.70;;;;;;;;;;5005692;28;20652;-76
2022/02/18 11:55:27;;;;;;;0.70;0.63;;;;;;;;;;5008641;28;20533;-78
2022/02/18 11:57:57;;;;;;;1.60;1.00;;;;;;;;;;5010654;28;20204;-79
2022/02/18 12:00:37;;;;;;;0.80;0.70;;;;;;;;;;5007602;28;20258;-77
2022/02/18 12:03:11;;;;;;;0.60;0.50;;;;;;;;;;5012255;28;20714;-77
2022/02/18 12:05:58;;;;;;;1.03;0.80;;;;;;;;;;5015223;28;20327;-77
2022/02/18 12:08:29;;;;;;;1.30;0.73;;;;;;;;;;5009716;28;20346;-78
2022/02/18 12:10:59;;;;;;;2.10;0.50;;;;;;;;;;5016066;28;20212;-78
2022/02/18 12:13:27;;;;;;;3.10;1.20;;;;;;;;;;5008250;28;20290;-78
2022/02/18 12:16:00;;;;;;;2.80;1.70;;;;;;;;;;5011897;28;20232;-79
2022/02/18 12:18:28;;;;;;;1.83;0.97;;;;;;;;;;5009056;28;20707;-78
2022/02/18 12:21:07;;;;;;;1.27;0.90;;;;;;;;;;5010993;28;20204;-79
2022/02/18 12:23:41;;;;;;;0.73;0.60;;;;;;;;;;5009864;28;20228;-78
2022/02/18 12:26:24;;;;;;;1.00;0.70;;;;;;;;;;5008252;28;20904;-77
2022/02/18 12:28:53;;;;;;;1.70;0.97;;;;;;;;;;5010831;28;20231;-78
2022/02/18 12:31:20;;;;;;;1.83;1.27;;;;;;;;;;5008104;28;20207;-77
2022/02/18 12:33:49;;;;;;;2.80;1.73;;;;;;;;;;5008194;28;20210;-78
2022/02/18 12:36:19;;;;;;;2.00;1.80;;;;;;;;;;5009140;28;20232;-79
2022/02/18 12:38:46;;;;;;;1.27;0.90;;;;;;;;;;5009167;28;20235;-78
2022/02/18 12:41:15;;;;;;;2.27;1.30;;;;;;;;;;5007661;28;20295;-79
2022/02/18 12:43:42;;;;;;;1.50;0.90;;;;;;;;;;5008950;28;20208;-80
2022/02/18 12:46:12;;;;;;;0.87;0.50;;;;;;;;;;5005140;28;20255;-78
2022/02/18 12:48:40;;;;;;;1.13;0.70;;;;;;;;;;5001866;28;20259;-80
2022/02/18 12:51:14;;;;;;;0.83;0.70;;;;;;;;;;5004353;28;20196;-79
2022/02/18 12:53:42;;;;;;;1.07;0.80;;;;;;;;;;5012033;28;20542;-80
2022/02/18 12:56:20;;;;;;;2.27;1.20;;;;;;;;;;5010444;28;20228;-80
2022/02/18 12:58:51;;;;;;;2.10;0.50;;;;;;;;;;5009010;28;20203;-80
2022/02/18 13:01:21;;;;;;;2.60;1.70;;;;;;;;;;5005889;28;20207;-79
2022/02/18 13:03:49;;;;;;;1.17;0.60;;;;;;;;;;5008753;28;20218;-80
2022/02/18 13:06:19;;;;;;;5.10;2.63;;;;;;;;;;5015906;28;20330;-79
2022/02/18 13:08:49;;;;;;;1.70;0.90;;;;;;;;;;5008396;28;20227;-80
2022/02/18 13:11:24;;;;;;;5.20;1.90;;;;;;;;;;5008704;28;20215;-80
2022/02/18 13:13:51;;;;;;;6.93;3.10;;;;;;;;;;5014570;28;20860;-80
2022/02/18 13:16:19;;;;;;;2.67;0.70;;;;;;;;;;5010277;28;20263;-80
2022/02/18 13:18:53;;;;;;;0.93;0.53;;;;;;;;;;5010619;28;20205;-79
2022/02/18 13:21:22;;;;;;;2.00;1.17;;;;;;;;;;5007143;28;20741;-80
2022/02/18 13:23:49;;;;;;;2.13;1.03;;;;;;;;;;5009851;28;20263;-81
2022/02/18 13:26:18;;;;;;;1.60;0.83;;;;;;;;;;5002894;28;20242;-79
2022/02/18 13:28:49;;;;;;;2.23;0.67;;;;;;;;;;5009681;28;20212;-80
2022/02/18 13:31:47;;;;;;;1.27;0.70;;;;;;;;;;5006986;28;20291;-81
2022/02/18 13:34:17;;;;;;;0.77;0.60;;;;;;;;;;5011531;28;20283;-80
2022/02/18 13:36:45;;;;;;;2.17;0.90;;;;;;;;;;5010571;28;20235;-81
2022/02/18 13:39:15;;;;;;;2.50;1.10;;;;;;;;;;5011717;28;20737;-80
2022/02/18 13:41:42;;;;;;;2.37;0.90;;;;;;;;;;5006982;28;20208;-80
2022/02/18 13:44:13;;;;;;;3.77;1.30;;;;;;;;;;5011186;28;20685;-80
2022/02/18 13:46:41;;;;;;;1.13;0.73;;;;;;;;;;5004596;28;20228;-81
2022/02/18 13:49:09;;;;;;;3.67;1.77;;;;;;;;;;5007820;28;20231;-80
2022/02/18 13:51:37;;;;;;;1.33;0.53;;;;;;;;;;5007392;28;20290;-79
2022/02/18 13:54:14;;;;;;;0.70;0.27;;;;;;;;;;5010900;28;20286;-79
2022/02/18 13:56:44;;;;;;;1.00;0.70;;;;;;;;;;5008860;28;20224;-80
2022/02/18 13:59:21;;;;;;;3.43;1.60;;;;;;;;;;5008989;28;20575;-80
2022/02/18 14:01:50;;;;;;;3.23;1.00;;;;;;;;;;5013898;28;20849;-81
2022/02/18 14:04:18;;;;;;;2.17;1.27;;;;;;;;;;5009213;28;20210;-80
2022/02/18 14:06:45;;;;;;;1.80;1.00;;;;;;;;;;5015804;28;20277;-79
2022/02/18 14:09:16;;;;;;;3.87;1.27;;;;;;;;;;5015612;28;20227;-79
2022/02/18 14:11:50;;;;;;;3.10;0.50;;;;;;;;;;5013651;28;20204;-80
2022/02/18 14:14:18;;;;;;;2.63;1.37;;;;;;;;;;5010177;28;20271;-79
2022/02/18 14:16:50;;;;;;;0.70;0.70;;;;;;;;;;5015532;28;20228;-79
2022/02/18 14:19:17;;;;;;;2.10;1.43;;;;;;;;;;5014866;28;20731;-79
2022/02/18 14:21:56;;;;;;;4.97;3.60;;;;;;;;;;5013653;28;20742;-79
2022/02/18 14:24:34;;;;;;;1.93;1.30;;;;;;;;;;5013101;28;20219;-81
2022/02/18 14:27:01;;;;;;;2.70;1.70;;;;;;;;;;5013130;28;20240;-79
2022/02/18 14:29:28;;;;;;;2.73;1.37;;;;;;;;;;5014320;28;20234;-79
2022/02/18 14:31:57;;;;;;;15.00;9.90;;;;;;;;;;5011364;28;20210;-81
2022/02/18 14:34:24;;;;;;;2.93;1.80;;;;;;;;;;5010864;28;20477;-79
2022/02/18 14:37:00;;;;;;;6.03;3.83;;;;;;;;;;5015938;28;20757;-80
2022/02/18 14:39:28;;;;;;;7.53;4.07;;;;;;;;;;5012494;28;20200;-80
2022/02/18 14:42:00;;;;;;;7.87;4.47;;;;;;;;;;5014693;28;20216;-79
2022/02/18 14:44:46;;;;;;;7.70;4.60;;;;;;;;;;5014253;28;20199;-79